sensor_id;sensor_type;location;lat;lon;timestamp;pressure;altitude;pressure_sealevel;temperature;humidity
36380;BME280;22411;53.016;18.632;2023-03-23T00:00:07;99905.38;;;9.73;100.00
36380;BME280;22411;53.016;18.632;2023-03-23T00:02:55;99898.69;;;9.71;100.00
36380;BME280;22411;53.016;18.632;2023-03-23T00:05:21;99907.03;;;9.74;100.00
36380;BME280;22411;53.016;18.632;2023-03-23T00:07:48;99907.16;;;9.73;100.00
36380;BME280;22411;53.016;18.632;2023-03-23T00:10:17;99892.22;;;9.76;100.00
36380;BME280;22411;53.016;18.632;2023-03-23T00:12:44;99892.81;;;9.80;100.00
36380;BME280;22411;53.016;18.632;2023-03-23T00:15:11;99893.75;;;9.79;100.00
36380;BME280;22411;53.016;18.632;2023-03-23T00:17:39;99900.00;;;9.87;100.00
36380;BME280;22411;53.016;18.632;2023-03-23T00:20:11;99895.66;;;9.88;100.00
36380;BME280;22411;53.016;18.632;2023-03-23T00:22:39;99893.41;;;9.94;100.00
36380;BME280;22411;53.016;18.632;2023-03-23T00:25:07;99887.53;;;9.92;100.00
36380;BME280;22411;53.016;18.632;2023-03-23T00:27:36;99894.72;;;9.89;100.00
36380;BME280;22411;53.016;18.632;2023-03-23T00:30:03;99893.28;;;9.85;100.00
36380;BME280;22411;53.016;18.632;2023-03-23T00:32:30;99885.78;;;9.82;100.00
36380;BME280;22411;53.016;18.632;2023-03-23T00:34:58;99884.56;;;9.75;100.00
36380;BME280;22411;53.016;18.632;2023-03-23T00:37:27;99887.28;;;9.73;100.00
36380;BME280;22411;53.016;18.632;2023-03-23T00:39:53;99882.44;;;9.68;100.00
36380;BME280;22411;53.016;18.632;2023-03-23T00:42:24;99881.41;;;9.71;100.00
36380;BME280;22411;53.016;18.632;2023-03-23T00:44:51;99883.84;;;9.73;100.00
36380;BME280;22411;53.016;18.632;2023-03-23T00:47:27;99881.28;;;9.73;100.00
36380;BME280;22411;53.016;18.632;2023-03-23T00:49:53;99882.31;;;9.70;100.00
36380;BME280;22411;53.016;18.632;2023-03-23T00:52:22;99883.25;;;9.69;100.00
36380;BME280;22411;53.016;18.632;2023-03-23T00:54:50;99885.13;;;9.67;100.00
36380;BME280;22411;53.016;18.632;2023-03-23T00:57:17;99885.97;;;9.67;100.00
36380;BME280;22411;53.016;18.632;2023-03-23T00:59:43;99883.72;;;9.74;100.00
36380;BME280;22411;53.016;18.632;2023-03-23T01:02:10;99886.94;;;9.78;100.00
36380;BME280;22411;53.016;18.632;2023-03-23T01:04:38;99872.22;;;9.78;100.00
36380;BME280;22411;53.016;18.632;2023-03-23T01:07:05;99881.53;;;9.81;100.00
36380;BME280;22411;53.016;18.632;2023-03-23T01:09:34;99878.69;;;9.84;100.00
36380;BME280;22411;53.016;18.632;2023-03-23T01:12:02;99885.31;;;9.88;100.00
36380;BME280;22411;53.016;18.632;2023-03-23T01:14:29;99884.84;;;9.94;100.00
36380;BME280;22411;53.016;18.632;2023-03-23T01:16:56;99879.53;;;9.95;100.00
36380;BME280;22411;53.016;18.632;2023-03-23T01:19:22;99882.03;;;9.97;100.00
36380;BME280;22411;53.016;18.632;2023-03-23T01:21:49;99881.09;;;9.98;100.00
36380;BME280;22411;53.016;18.632;2023-03-23T01:24:16;99870.25;;;9.93;100.00
36380;BME280;22411;53.016;18.632;2023-03-23T01:26:43;99873.31;;;9.98;100.00
36380;BME280;22411;53.016;18.632;2023-03-23T01:29:10;99867.41;;;9.96;100.00
36380;BME280;22411;53.016;18.632;2023-03-23T01:31:37;99863.09;;;9.97;100.00
36380;BME280;22411;53.016;18.632;2023-03-23T01:34:03;99862.13;;;9.98;100.00
36380;BME280;22411;53.016;18.632;2023-03-23T01:36:31;99858.13;;;9.93;100.00
36380;BME280;22411;53.016;18.632;2023-03-23T01:39:00;99853.91;;;9.92;100.00
36380;BME280;22411;53.016;18.632;2023-03-23T01:41:31;99848.59;;;9.94;100.00
36380;BME280;22411;53.016;18.632;2023-03-23T01:46:32;99844.00;;;9.86;100.00
36380;BME280;22411;53.016;18.632;2023-03-23T01:49:09;99840.69;;;9.84;100.00
36380;BME280;22411;53.016;18.632;2023-03-23T01:51:42;99838.56;;;9.78;100.00
36380;BME280;22411;53.016;18.632;2023-03-23T01:54:12;99845.41;;;9.79;100.00
36380;BME280;22411;53.016;18.632;2023-03-23T01:57:34;99846.00;;;9.83;100.00
36380;BME280;22411;53.016;18.632;2023-03-23T01:59:48;99854.13;;;9.89;100.00
36380;BME280;22411;53.016;18.632;2023-03-23T02:02:17;99850.38;;;9.93;100.00
36380;BME280;22411;53.016;18.632;2023-03-23T02:04:44;99848.38;;;9.97;100.00
36380;BME280;22411;53.016;18.632;2023-03-23T02:07:14;99842.59;;;9.93;100.00
36380;BME280;22411;53.016;18.632;2023-03-23T02:09:42;99848.38;;;9.97;100.00
36380;BME280;22411;53.016;18.632;2023-03-23T02:12:09;99838.38;;;9.92;100.00
36380;BME280;22411;53.016;18.632;2023-03-23T02:14:35;99835.06;;;9.90;100.00
36380;BME280;22411;53.016;18.632;2023-03-23T02:17:18;99833.28;;;9.91;100.00
36380;BME280;22411;53.016;18.632;2023-03-23T02:20:19;99830.81;;;9.89;100.00
36380;BME280;22411;53.016;18.632;2023-03-23T02:28:42;99827.06;;;9.82;100.00
36380;BME280;22411;53.016;18.632;2023-03-23T02:31:33;99827.28;;;9.79;100.00
36380;BME280;22411;53.016;18.632;2023-03-23T02:34:22;99820.47;;;9.78;100.00
36380;BME280;22411;53.016;18.632;2023-03-23T02:37:39;99816.44;;;9.74;100.00
36380;BME280;22411;53.016;18.632;2023-03-23T02:42:37;99821.63;;;9.63;100.00
36380;BME280;22411;53.016;18.632;2023-03-23T02:45:06;99815.00;;;9.59;100.00
36380;BME280;22411;53.016;18.632;2023-03-23T02:47:34;99825.00;;;9.52;100.00
36380;BME280;22411;53.016;18.632;2023-03-23T02:50:03;99821.25;;;9.45;100.00
36380;BME280;22411;53.016;18.632;2023-03-23T02:52:31;99810.25;;;9.30;100.00
36380;BME280;22411;53.016;18.632;2023-03-23T02:55:00;99805.50;;;9.13;100.00
36380;BME280;22411;53.016;18.632;2023-03-23T02:57:28;99802.16;;;9.00;100.00
36380;BME280;22411;53.016;18.632;2023-03-23T02:59:54;99795.69;;;8.94;100.00
36380;BME280;22411;53.016;18.632;2023-03-23T03:02:34;99787.31;;;8.90;100.00
36380;BME280;22411;53.016;18.632;2023-03-23T03:13:12;99785.63;;;9.02;100.00
36380;BME280;22411;53.016;18.632;2023-03-23T03:18:42;99780.06;;;8.96;100.00
36380;BME280;22411;53.016;18.632;2023-03-23T03:21:14;99792.06;;;8.97;100.00
36380;BME280;22411;53.016;18.632;2023-03-23T03:23:47;99789.13;;;9.01;100.00
36380;BME280;22411;53.016;18.632;2023-03-23T03:26:15;99783.13;;;9.01;100.00
36380;BME280;22411;53.016;18.632;2023-03-23T03:28:47;99779.84;;;8.99;100.00
36380;BME280;22411;53.016;18.632;2023-03-23T03:31:18;99777.38;;;8.97;100.00
36380;BME280;22411;53.016;18.632;2023-03-23T03:33:46;99775.81;;;8.95;100.00
36380;BME280;22411;53.016;18.632;2023-03-23T03:36:18;99768.19;;;8.93;100.00
36380;BME280;22411;53.016;18.632;2023-03-23T03:38:49;99776.97;;;8.90;100.00
36380;BME280;22411;53.016;18.632;2023-03-23T03:41:17;99769.69;;;8.84;100.00
36380;BME280;22411;53.016;18.632;2023-03-23T03:43:45;99775.28;;;8.78;100.00
36380;BME280;22411;53.016;18.632;2023-03-23T03:46:11;99774.69;;;8.75;100.00
36380;BME280;22411;53.016;18.632;2023-03-23T03:48:37;99782.22;;;8.78;100.00
36380;BME280;22411;53.016;18.632;2023-03-23T03:51:04;99783.63;;;8.71;100.00
36380;BME280;22411;53.016;18.632;2023-03-23T03:53:31;99776.28;;;8.64;100.00
36380;BME280;22411;53.016;18.632;2023-03-23T03:55:58;99776.72;;;8.58;100.00
36380;BME280;22411;53.016;18.632;2023-03-23T03:58:26;99777.16;;;8.52;100.00
36380;BME280;22411;53.016;18.632;2023-03-23T04:01:03;99775.72;;;8.48;100.00
36380;BME280;22411;53.016;18.632;2023-03-23T04:03:29;99766.13;;;8.50;100.00
36380;BME280;22411;53.016;18.632;2023-03-23T04:05:56;99767.16;;;8.48;100.00
36380;BME280;22411;53.016;18.632;2023-03-23T04:08:22;99758.47;;;8.49;100.00
36380;BME280;22411;53.016;18.632;2023-03-23T04:10:49;99760.63;;;8.55;100.00
36380;BME280;22411;53.016;18.632;2023-03-23T04:13:16;99765.00;;;8.54;100.00
36380;BME280;22411;53.016;18.632;2023-03-23T04:15:44;99756.28;;;8.55;100.00
36380;BME280;22411;53.016;18.632;2023-03-23T04:18:10;99755.69;;;8.52;100.00
36380;BME280;22411;53.016;18.632;2023-03-23T04:20:38;99755.19;;;8.47;100.00
36380;BME280;22411;53.016;18.632;2023-03-23T04:23:04;99756.34;;;8.43;100.00
36380;BME280;22411;53.016;18.632;2023-03-23T04:25:31;99757.16;;;8.43;100.00
36380;BME280;22411;53.016;18.632;2023-03-23T04:27:59;99751.13;;;8.55;100.00
36380;BME280;22411;53.016;18.632;2023-03-23T04:30:28;99747.41;;;8.59;100.00
36380;BME280;22411;53.016;18.632;2023-03-23T04:32:56;99752.13;;;8.66;100.00
36380;BME280;22411;53.016;18.632;2023-03-23T04:35:24;99748.72;;;8.65;100.00
36380;BME280;22411;53.016;18.632;2023-03-23T04:37:53;99744.25;;;8.67;100.00
36380;BME280;22411;53.016;18.632;2023-03-23T04:40:26;99731.44;;;8.66;100.00
36380;BME280;22411;53.016;18.632;2023-03-23T04:42:53;99724.03;;;8.61;100.00
36380;BME280;22411;53.016;18.632;2023-03-23T04:45:23;99725.78;;;8.60;100.00
36380;BME280;22411;53.016;18.632;2023-03-23T04:47:49;99730.84;;;8.62;100.00
36380;BME280;22411;53.016;18.632;2023-03-23T04:50:21;99735.06;;;8.63;100.00
36380;BME280;22411;53.016;18.632;2023-03-23T04:52:50;99738.72;;;8.60;100.00
36380;BME280;22411;53.016;18.632;2023-03-23T04:55:18;99743.63;;;8.63;100.00
36380;BME280;22411;53.016;18.632;2023-03-23T04:57:46;99743.75;;;8.62;100.00
36380;BME280;22411;53.016;18.632;2023-03-23T05:00:13;99745.41;;;8.63;100.00
36380;BME280;22411;53.016;18.632;2023-03-23T05:02:45;99739.28;;;8.64;100.00
36380;BME280;22411;53.016;18.632;2023-03-23T05:05:14;99732.03;;;8.69;100.00
36380;BME280;22411;53.016;18.632;2023-03-23T05:07:42;99746.72;;;8.69;100.00
36380;BME280;22411;53.016;18.632;2023-03-23T05:10:11;99737.31;;;8.68;100.00
36380;BME280;22411;53.016;18.632;2023-03-23T05:12:37;99735.56;;;8.68;100.00
36380;BME280;22411;53.016;18.632;2023-03-23T05:15:05;99744.28;;;8.78;100.00
36380;BME280;22411;53.016;18.632;2023-03-23T05:17:32;99740.31;;;8.85;100.00
36380;BME280;22411;53.016;18.632;2023-03-23T05:19:58;99739.97;;;8.90;100.00
36380;BME280;22411;53.016;18.632;2023-03-23T05:22:26;99723.66;;;8.89;100.00
36380;BME280;22411;53.016;18.632;2023-03-23T05:24:53;99732.50;;;8.98;100.00
36380;BME280;22411;53.016;18.632;2023-03-23T05:27:20;99727.00;;;9.03;100.00
36380;BME280;22411;53.016;18.632;2023-03-23T05:29:46;99724.91;;;9.08;100.00
36380;BME280;22411;53.016;18.632;2023-03-23T05:32:16;99726.78;;;9.17;100.00
36380;BME280;22411;53.016;18.632;2023-03-23T05:34:43;99741.38;;;9.18;100.00
36380;BME280;22411;53.016;18.632;2023-03-23T05:37:09;99748.31;;;9.29;100.00
36380;BME280;22411;53.016;18.632;2023-03-23T05:39:37;99738.81;;;9.40;100.00
36380;BME280;22411;53.016;18.632;2023-03-23T05:42:04;99727.41;;;9.43;100.00
36380;BME280;22411;53.016;18.632;2023-03-23T05:44:30;99731.53;;;9.46;100.00
36380;BME280;22411;53.016;18.632;2023-03-23T05:46:57;99728.34;;;9.53;100.00
36380;BME280;22411;53.016;18.632;2023-03-23T05:49:23;99729.16;;;9.54;100.00
36380;BME280;22411;53.016;18.632;2023-03-23T05:51:51;99726.00;;;9.61;100.00
36380;BME280;22411;53.016;18.632;2023-03-23T05:54:18;99724.25;;;9.62;100.00
36380;BME280;22411;53.016;18.632;2023-03-23T05:56:44;99721.44;;;9.65;100.00
36380;BME280;22411;53.016;18.632;2023-03-23T05:59:11;99722.72;;;9.71;100.00
36380;BME280;22411;53.016;18.632;2023-03-23T06:01:38;99723.28;;;9.74;100.00
36380;BME280;22411;53.016;18.632;2023-03-23T06:04:04;99723.66;;;9.81;100.00
36380;BME280;22411;53.016;18.632;2023-03-23T06:06:30;99724.69;;;9.89;100.00
36380;BME280;22411;53.016;18.632;2023-03-23T06:08:58;99720.72;;;9.97;100.00
36380;BME280;22411;53.016;18.632;2023-03-23T06:11:25;99714.31;;;10.01;100.00
36380;BME280;22411;53.016;18.632;2023-03-23T06:13:52;99718.19;;;10.06;100.00
36380;BME280;22411;53.016;18.632;2023-03-23T06:16:19;99713.97;;;10.05;100.00
36380;BME280;22411;53.016;18.632;2023-03-23T06:18:46;99707.75;;;10.08;100.00
36380;BME280;22411;53.016;18.632;2023-03-23T06:21:12;99699.72;;;10.11;100.00
36380;BME280;22411;53.016;18.632;2023-03-23T06:23:39;99693.69;;;10.21;100.00
36380;BME280;22411;53.016;18.632;2023-03-23T06:26:07;99690.25;;;10.32;100.00
36380;BME280;22411;53.016;18.632;2023-03-23T06:28:35;99701.16;;;10.47;100.00
36380;BME280;22411;53.016;18.632;2023-03-23T06:31:03;99696.75;;;10.59;100.00
36380;BME280;22411;53.016;18.632;2023-03-23T06:33:34;99695.50;;;10.74;100.00
36380;BME280;22411;53.016;18.632;2023-03-23T06:36:01;99702.31;;;10.86;100.00
36380;BME280;22411;53.016;18.632;2023-03-23T06:38:28;99701.81;;;10.92;100.00
36380;BME280;22411;53.016;18.632;2023-03-23T06:40:58;99711.00;;;11.06;100.00
36380;BME280;22411;53.016;18.632;2023-03-23T06:43:43;99712.66;;;11.07;100.00
36380;BME280;22411;53.016;18.632;2023-03-23T06:46:09;99711.84;;;11.07;100.00
36380;BME280;22411;53.016;18.632;2023-03-23T06:48:35;99697.81;;;11.09;100.00
36380;BME280;22411;53.016;18.632;2023-03-23T06:51:02;99700.84;;;11.14;100.00
36380;BME280;22411;53.016;18.632;2023-03-23T06:53:28;99701.81;;;11.23;100.00
36380;BME280;22411;53.016;18.632;2023-03-23T06:55:54;99690.13;;;11.29;100.00
36380;BME280;22411;53.016;18.632;2023-03-23T06:58:20;99677.59;;;11.34;100.00
36380;BME280;22411;53.016;18.632;2023-03-23T07:00:46;99683.78;;;11.42;100.00
36380;BME280;22411;53.016;18.632;2023-03-23T07:03:13;99694.06;;;11.53;100.00
36380;BME280;22411;53.016;18.632;2023-03-23T07:05:39;99676.88;;;11.62;100.00
36380;BME280;22411;53.016;18.632;2023-03-23T07:08:05;99684.81;;;11.70;100.00
36380;BME280;22411;53.016;18.632;2023-03-23T07:10:31;99681.97;;;11.73;100.00
36380;BME280;22411;53.016;18.632;2023-03-23T07:12:57;99688.88;;;11.84;100.00
36380;BME280;22411;53.016;18.632;2023-03-23T07:15:25;99681.09;;;11.94;100.00
36380;BME280;22411;53.016;18.632;2023-03-23T07:17:51;99696.97;;;12.00;100.00
36380;BME280;22411;53.016;18.632;2023-03-23T07:20:18;99710.53;;;12.14;100.00
36380;BME280;22411;53.016;18.632;2023-03-23T07:22:44;99702.09;;;12.31;100.00
36380;BME280;22411;53.016;18.632;2023-03-23T07:25:10;99694.97;;;12.43;100.00
36380;BME280;22411;53.016;18.632;2023-03-23T07:27:36;99705.94;;;12.56;100.00
36380;BME280;22411;53.016;18.632;2023-03-23T07:30:04;99709.34;;;12.56;100.00
36380;BME280;22411;53.016;18.632;2023-03-23T07:32:30;99706.59;;;12.58;100.00
36380;BME280;22411;53.016;18.632;2023-03-23T07:34:57;99708.66;;;12.64;100.00
36380;BME280;22411;53.016;18.632;2023-03-23T07:37:23;99704.69;;;12.70;100.00
36380;BME280;22411;53.016;18.632;2023-03-23T07:39:49;99715.38;;;12.76;100.00
36380;BME280;22411;53.016;18.632;2023-03-23T07:42:15;99709.47;;;12.74;100.00
36380;BME280;22411;53.016;18.632;2023-03-23T07:44:42;99702.38;;;12.76;100.00
36380;BME280;22411;53.016;18.632;2023-03-23T07:47:08;99693.59;;;12.77;100.00
36380;BME280;22411;53.016;18.632;2023-03-23T07:49:35;99691.53;;;12.81;100.00
36380;BME280;22411;53.016;18.632;2023-03-23T07:52:01;99685.94;;;12.76;100.00
36380;BME280;22411;53.016;18.632;2023-03-23T07:54:29;99688.69;;;12.74;100.00
36380;BME280;22411;53.016;18.632;2023-03-23T07:56:55;99685.50;;;12.80;100.00
36380;BME280;22411;53.016;18.632;2023-03-23T07:59:22;99680.84;;;12.94;100.00
36380;BME280;22411;53.016;18.632;2023-03-23T08:01:48;99701.88;;;13.20;100.00
36380;BME280;22411;53.016;18.632;2023-03-23T08:04:14;99698.16;;;13.42;100.00
36380;BME280;22411;53.016;18.632;2023-03-23T08:06:41;99713.91;;;13.77;100.00
36380;BME280;22411;53.016;18.632;2023-03-23T08:09:08;99695.06;;;14.11;100.00
36380;BME280;22411;53.016;18.632;2023-03-23T08:11:35;99711.47;;;14.39;100.00
36380;BME280;22411;53.016;18.632;2023-03-23T08:14:01;99694.16;;;14.48;100.00
36380;BME280;22411;53.016;18.632;2023-03-23T08:16:29;99724.34;;;14.50;100.00
36380;BME280;22411;53.016;18.632;2023-03-23T08:18:55;99703.72;;;14.29;100.00
36380;BME280;22411;53.016;18.632;2023-03-23T08:21:22;99703.84;;;14.28;100.00
36380;BME280;22411;53.016;18.632;2023-03-23T08:23:49;99701.63;;;14.33;100.00
36380;BME280;22411;53.016;18.632;2023-03-23T08:26:15;99696.66;;;14.39;100.00
36380;BME280;22411;53.016;18.632;2023-03-23T08:28:42;99701.13;;;14.65;100.00
36380;BME280;22411;53.016;18.632;2023-03-23T08:31:12;99704.16;;;14.96;100.00
36380;BME280;22411;53.016;18.632;2023-03-23T08:33:42;99707.44;;;15.24;100.00
36380;BME280;22411;53.016;18.632;2023-03-23T08:36:08;99692.53;;;15.42;100.00
36380;BME280;22411;53.016;18.632;2023-03-23T08:38:35;99688.94;;;15.69;100.00
36380;BME280;22411;53.016;18.632;2023-03-23T08:41:04;99693.56;;;15.84;100.00
36380;BME280;22411;53.016;18.632;2023-03-23T08:43:32;99707.47;;;15.92;100.00
36380;BME280;22411;53.016;18.632;2023-03-23T08:45:58;99702.22;;;15.84;100.00
36380;BME280;22411;53.016;18.632;2023-03-23T08:48:26;99703.53;;;15.97;100.00
36380;BME280;22411;53.016;18.632;2023-03-23T08:50:52;99716.78;;;15.95;100.00
36380;BME280;22411;53.016;18.632;2023-03-23T08:53:19;99700.22;;;15.78;100.00
36380;BME280;22411;53.016;18.632;2023-03-23T08:55:48;99701.50;;;15.66;100.00
36380;BME280;22411;53.016;18.632;2023-03-23T08:58:15;99710.97;;;15.67;100.00
36380;BME280;22411;53.016;18.632;2023-03-23T09:00:41;99707.56;;;15.75;100.00
36380;BME280;22411;53.016;18.632;2023-03-23T09:03:08;99732.88;;;15.74;100.00
36380;BME280;22411;53.016;18.632;2023-03-23T09:05:36;99728.56;;;15.65;100.00
36380;BME280;22411;53.016;18.632;2023-03-23T09:08:08;99717.34;;;15.73;100.00
36380;BME280;22411;53.016;18.632;2023-03-23T09:10:34;99696.47;;;15.81;100.00
36380;BME280;22411;53.016;18.632;2023-03-23T09:13:01;99695.53;;;15.90;100.00
36380;BME280;22411;53.016;18.632;2023-03-23T09:15:27;99715.44;;;15.91;100.00
36380;BME280;22411;53.016;18.632;2023-03-23T09:17:54;99696.84;;;15.94;100.00
36380;BME280;22411;53.016;18.632;2023-03-23T09:20:24;99707.19;;;16.12;100.00
36380;BME280;22411;53.016;18.632;2023-03-23T09:22:52;99700.81;;;16.06;100.00
36380;BME280;22411;53.016;18.632;2023-03-23T09:25:20;99696.06;;;16.02;100.00
36380;BME280;22411;53.016;18.632;2023-03-23T09:27:56;99702.16;;;16.27;100.00
36380;BME280;22411;53.016;18.632;2023-03-23T09:30:24;99693.69;;;16.49;100.00
36380;BME280;22411;53.016;18.632;2023-03-23T09:32:53;99701.88;;;16.87;100.00
36380;BME280;22411;53.016;18.632;2023-03-23T09:35:20;99698.63;;;16.77;100.00
36380;BME280;22411;53.016;18.632;2023-03-23T09:37:48;99705.13;;;16.48;100.00
36380;BME280;22411;53.016;18.632;2023-03-23T09:40:32;99703.00;;;16.35;100.00
36380;BME280;22411;53.016;18.632;2023-03-23T09:46:13;99692.66;;;16.17;100.00
36380;BME280;22411;53.016;18.632;2023-03-23T09:49:02;99691.13;;;16.73;100.00
36380;BME280;22411;53.016;18.632;2023-03-23T09:54:29;99701.31;;;17.40;100.00
36380;BME280;22411;53.016;18.632;2023-03-23T09:56:59;99692.72;;;17.63;100.00
36380;BME280;22411;53.016;18.632;2023-03-23T09:59:31;99699.94;;;18.31;100.00
36380;BME280;22411;53.016;18.632;2023-03-23T10:02:11;99695.31;;;18.33;100.00
36380;BME280;22411;53.016;18.632;2023-03-23T10:07:17;99687.69;;;17.92;100.00
36380;BME280;22411;53.016;18.632;2023-03-23T10:09:47;99694.31;;;18.11;100.00
36380;BME280;22411;53.016;18.632;2023-03-23T10:15:10;99694.22;;;18.05;97.20
36380;BME280;22411;53.016;18.632;2023-03-23T10:20:31;99684.78;;;17.87;100.00
36380;BME280;22411;53.016;18.632;2023-03-23T10:23:05;99688.66;;;17.99;99.39
36380;BME280;22411;53.016;18.632;2023-03-23T10:25:40;99687.19;;;17.58;100.00
36380;BME280;22411;53.016;18.632;2023-03-23T10:28:11;99704.28;;;17.37;100.00
36380;BME280;22411;53.016;18.632;2023-03-23T10:30:55;99698.94;;;17.06;100.00
36380;BME280;22411;53.016;18.632;2023-03-23T10:33:36;99697.78;;;17.09;100.00
36380;BME280;22411;53.016;18.632;2023-03-23T10:38:47;99702.72;;;16.95;100.00
36380;BME280;22411;53.016;18.632;2023-03-23T10:41:18;99706.94;;;16.64;100.00
36380;BME280;22411;53.016;18.632;2023-03-23T10:43:45;99720.84;;;16.64;100.00
36380;BME280;22411;53.016;18.632;2023-03-23T10:46:25;99704.13;;;16.33;100.00
36380;BME280;22411;53.016;18.632;2023-03-23T10:48:54;99710.97;;;16.17;100.00
36380;BME280;22411;53.016;18.632;2023-03-23T10:51:29;99735.16;;;16.19;100.00
36380;BME280;22411;53.016;18.632;2023-03-23T10:54:00;99712.09;;;16.15;100.00
36380;BME280;22411;53.016;18.632;2023-03-23T10:56:34;99713.69;;;16.08;100.00
36380;BME280;22411;53.016;18.632;2023-03-23T10:59:14;99725.00;;;16.16;100.00
36380;BME280;22411;53.016;18.632;2023-03-23T11:01:44;99731.88;;;16.17;100.00
36380;BME280;22411;53.016;18.632;2023-03-23T11:04:16;99741.28;;;15.94;100.00
36380;BME280;22411;53.016;18.632;2023-03-23T11:06:48;99740.34;;;15.69;100.00
36380;BME280;22411;53.016;18.632;2023-03-23T11:09:17;99735.75;;;15.63;100.00
36380;BME280;22411;53.016;18.632;2023-03-23T11:11:51;99752.38;;;15.62;100.00
36380;BME280;22411;53.016;18.632;2023-03-23T11:14:25;99749.47;;;15.65;100.00
36380;BME280;22411;53.016;18.632;2023-03-23T11:16:58;99752.06;;;15.65;100.00
36380;BME280;22411;53.016;18.632;2023-03-23T11:19:29;99750.53;;;15.54;100.00
36380;BME280;22411;53.016;18.632;2023-03-23T11:22:14;99753.38;;;15.35;100.00
36380;BME280;22411;53.016;18.632;2023-03-23T11:24:44;99747.91;;;15.28;100.00
36380;BME280;22411;53.016;18.632;2023-03-23T11:27:12;99748.72;;;15.29;100.00
36380;BME280;22411;53.016;18.632;2023-03-23T11:29:51;99744.19;;;15.31;100.00
36380;BME280;22411;53.016;18.632;2023-03-23T11:32:24;99751.69;;;15.34;100.00
36380;BME280;22411;53.016;18.632;2023-03-23T11:35:00;99741.88;;;15.28;100.00
36380;BME280;22411;53.016;18.632;2023-03-23T11:37:45;99746.75;;;15.23;100.00
36380;BME280;22411;53.016;18.632;2023-03-23T11:40:14;99754.31;;;15.34;100.00
36380;BME280;22411;53.016;18.632;2023-03-23T11:46:20;99754.38;;;15.42;100.00
36380;BME280;22411;53.016;18.632;2023-03-23T11:51:33;99776.72;;;15.44;100.00
36380;BME280;22411;53.016;18.632;2023-03-23T11:54:19;99756.44;;;15.12;100.00
36380;BME280;22411;53.016;18.632;2023-03-23T11:56:49;99766.31;;;15.01;100.00
36380;BME280;22411;53.016;18.632;2023-03-23T11:59:26;99762.16;;;14.90;100.00
36380;BME280;22411;53.016;18.632;2023-03-23T12:02:27;99758.44;;;14.75;100.00
36380;BME280;22411;53.016;18.632;2023-03-23T12:05:31;99749.88;;;14.64;100.00
36380;BME280;22411;53.016;18.632;2023-03-23T12:08:17;99762.53;;;14.59;100.00
36380;BME280;22411;53.016;18.632;2023-03-23T12:10:58;99754.94;;;14.66;100.00
36380;BME280;22411;53.016;18.632;2023-03-23T12:13:57;99759.31;;;14.65;100.00
36380;BME280;22411;53.016;18.632;2023-03-23T12:19:38;99758.38;;;14.39;100.00
36380;BME280;22411;53.016;18.632;2023-03-23T12:30:30;99746.78;;;14.06;100.00
36380;BME280;22411;53.016;18.632;2023-03-23T12:46:16;99745.53;;;14.10;100.00
36380;BME280;22411;53.016;18.632;2023-03-23T12:48:55;99745.53;;;14.10;100.00
36380;BME280;22411;53.016;18.632;2023-03-23T12:51:40;99739.47;;;14.19;100.00
36380;BME280;22411;53.016;18.632;2023-03-23T12:56:59;99746.16;;;14.67;100.00
36380;BME280;22411;53.016;18.632;2023-03-23T13:02:36;99747.19;;;14.56;100.00
36380;BME280;22411;53.016;18.632;2023-03-23T13:05:13;99748.66;;;14.41;100.00
36380;BME280;22411;53.016;18.632;2023-03-23T13:07:47;99745.94;;;14.33;100.00
36380;BME280;22411;53.016;18.632;2023-03-23T13:10:27;99747.19;;;14.29;100.00
36380;BME280;22411;53.016;18.632;2023-03-23T13:12:56;99753.81;;;14.23;100.00
36380;BME280;22411;53.016;18.632;2023-03-23T13:18:45;99747.72;;;14.15;100.00
36380;BME280;22411;53.016;18.632;2023-03-23T13:21:30;99747.41;;;14.18;100.00
36380;BME280;22411;53.016;18.632;2023-03-23T13:24:04;99747.13;;;14.21;100.00
36380;BME280;22411;53.016;18.632;2023-03-23T13:26:31;99751.41;;;14.12;100.00
36380;BME280;22411;53.016;18.632;2023-03-23T13:29:00;99732.06;;;14.15;100.00
36380;BME280;22411;53.016;18.632;2023-03-23T13:31:32;99743.75;;;14.10;100.00
36380;BME280;22411;53.016;18.632;2023-03-23T13:34:22;99741.00;;;14.12;100.00
36380;BME280;22411;53.016;18.632;2023-03-23T13:36:55;99747.16;;;14.11;100.00
36380;BME280;22411;53.016;18.632;2023-03-23T13:39:24;99751.78;;;14.17;100.00
36380;BME280;22411;53.016;18.632;2023-03-23T13:42:04;99746.78;;;14.06;100.00
36380;BME280;22411;53.016;18.632;2023-03-23T13:44:53;99754.19;;;14.10;100.00
36380;BME280;22411;53.016;18.632;2023-03-23T14:13:33;99741.63;;;14.24;100.00
36380;BME280;22411;53.016;18.632;2023-03-23T14:16:17;99754.13;;;14.20;100.00
36380;BME280;22411;53.016;18.632;2023-03-23T14:18:58;99740.34;;;14.28;100.00
36380;BME280;22411;53.016;18.632;2023-03-23T14:21:33;99751.53;;;14.38;100.00
36380;BME280;22411;53.016;18.632;2023-03-23T14:24:02;99767.16;;;14.38;100.00
36380;BME280;22411;53.016;18.632;2023-03-23T14:26:29;99749.03;;;14.46;100.00
36380;BME280;22411;53.016;18.632;2023-03-23T14:28:55;99745.59;;;14.46;100.00
36380;BME280;22411;53.016;18.632;2023-03-23T14:31:26;99741.06;;;14.48;100.00
36380;BME280;22411;53.016;18.632;2023-03-23T14:33:55;99723.94;;;14.45;100.00
36380;BME280;22411;53.016;18.632;2023-03-23T14:36:22;99723.69;;;14.38;100.00
36380;BME280;22411;53.016;18.632;2023-03-23T14:39:00;99728.38;;;14.35;100.00
36380;BME280;22411;53.016;18.632;2023-03-23T14:41:29;99725.91;;;14.33;100.00
36380;BME280;22411;53.016;18.632;2023-03-23T14:43:59;99726.66;;;14.26;100.00
36380;BME280;22411;53.016;18.632;2023-03-23T14:46:26;99731.06;;;14.25;100.00